createdAt,value
2018-11-21T00:00:18.158Z,0.90
2018-11-21T00:02:47.128Z,2.13
2018-11-21T00:05:16.118Z,3.50
2018-11-21T00:07:45.154Z,5.53
2018-11-21T00:10:14.653Z,6.50
2018-11-21T00:12:49.128Z,6.92
2018-11-21T00:15:17.942Z,6.92
2018-11-21T00:17:46.934Z,6.40
2018-11-21T00:20:15.812Z,6.20
2018-11-21T00:22:44.705Z,4.63
2018-11-21T00:25:13.889Z,5.20
2018-11-21T00:27:42.902Z,5.42
2018-11-21T00:30:15.681Z,4.73
2018-11-21T00:32:44.811Z,4.60
2018-11-21T00:35:13.663Z,4.43
2018-11-21T00:37:42.562Z,3.97
2018-11-21T00:40:13.174Z,3.40
2018-11-21T00:42:46.670Z,3.90
2018-11-21T00:45:11.498Z,3.73
2018-11-21T00:47:40.934Z,3.77
2018-11-21T00:50:09.910Z,3.67
2018-11-21T00:52:38.811Z,3.43
2018-11-21T00:55:08.040Z,3.70
2018-11-21T00:57:36.870Z,3.70
2018-11-21T01:00:07.826Z,5.00
2018-11-21T01:02:36.864Z,4.90
2018-11-21T01:05:06.323Z,5.80
2018-11-21T01:07:35.205Z,6.33
2018-11-21T01:10:04.471Z,6.53
2018-11-21T01:12:33.404Z,5.53
2018-11-21T01:15:02.404Z,6.03
2018-11-21T01:17:31.343Z,4.93
2018-11-21T01:20:00.172Z,3.10
2018-11-21T01:22:29.077Z,3.83
2018-11-21T01:24:58.112Z,3.40
2018-11-21T01:27:27.363Z,2.90
2018-11-21T01:29:56.055Z,2.87
2018-11-21T01:32:25.176Z,3.70
2018-11-21T01:34:54.152Z,1.77
2018-11-21T01:37:23.147Z,1.23
2018-11-21T01:39:52.141Z,1.03
2018-11-21T01:42:20.976Z,0.72
2018-11-21T01:44:49.816Z,0.88
2018-11-21T01:47:19.014Z,0.70
2018-11-21T01:49:47.902Z,0.50
2018-11-21T01:52:16.788Z,0.50
2018-11-21T01:54:45.984Z,0.42
2018-11-21T01:57:14.999Z,0.28
2018-11-21T01:59:44.809Z,0.20
2018-11-21T02:02:13.952Z,0.30
2018-11-21T02:04:42.902Z,0.50
2018-11-21T02:07:11.808Z,0.30
2018-11-21T02:09:41.011Z,0.30
2018-11-21T02:12:09.875Z,0.30
2018-11-21T02:14:38.878Z,0.42
2018-11-21T02:17:07.921Z,0.50
2018-11-21T02:19:36.863Z,0.55
2018-11-21T02:22:05.760Z,0.30
2018-11-21T02:24:34.986Z,0.33
2018-11-21T02:27:03.991Z,0.50
2018-11-21T02:29:32.950Z,0.50
2018-11-21T02:32:02.201Z,0.55
2018-11-21T02:34:31.131Z,0.57
2018-11-21T02:37:00.033Z,0.55
2018-11-21T02:39:29.360Z,0.57
2018-11-21T02:41:58.350Z,0.50
2018-11-21T02:44:27.315Z,0.45
2018-11-21T02:46:56.459Z,0.50
2018-11-21T02:49:25.421Z,0.80
2018-11-21T02:51:54.413Z,0.90
2018-11-21T02:54:23.736Z,0.68
2018-11-21T02:57:21.805Z,0.72
2018-11-21T02:59:52.561Z,0.90
2018-11-21T03:02:21.620Z,0.70
2018-11-21T03:04:50.531Z,0.57
2018-11-21T03:07:19.443Z,1.02
2018-11-21T03:09:48.393Z,0.85
2018-11-21T03:12:17.280Z,0.60
2018-11-21T03:14:46.377Z,0.70
2018-11-21T03:17:15.428Z,0.90
2018-11-21T03:19:44.272Z,1.30
2018-11-21T03:22:13.151Z,1.27
2018-11-21T03:24:42.385Z,0.85
2018-11-21T03:27:11.362Z,1.17
2018-11-21T03:29:40.249Z,1.15
2018-11-21T03:32:09.477Z,0.82
2018-11-21T03:34:38.432Z,0.57
2018-11-21T03:37:07.447Z,0.85
2018-11-21T03:39:36.667Z,0.95
2018-11-21T03:42:05.938Z,1.10
2018-11-21T03:44:34.938Z,0.50
2018-11-21T03:47:03.973Z,0.70
2018-11-21T03:49:32.810Z,1.00
2018-11-21T03:52:01.827Z,0.80
2018-11-21T03:54:30.729Z,0.70
2018-11-21T03:56:59.584Z,0.72
2018-11-21T03:59:28.589Z,0.60
2018-11-21T04:01:57.843Z,0.77
2018-11-21T04:04:26.792Z,0.90
2018-11-21T04:06:55.563Z,0.70
2018-11-21T04:09:24.834Z,0.70
2018-11-21T04:11:54.569Z,0.60
2018-11-21T04:14:22.765Z,0.60
2018-11-21T04:16:51.910Z,0.75
2018-11-21T04:19:20.853Z,0.60
2018-11-21T04:21:49.848Z,0.70
2018-11-21T04:24:18.985Z,0.70
2018-11-21T04:26:47.843Z,0.53
2018-11-21T04:29:16.833Z,0.50
2018-11-21T04:31:46.018Z,0.90
2018-11-21T04:34:14.930Z,0.70
2018-11-21T04:36:43.816Z,0.80
2018-11-21T04:39:13.340Z,0.70
2018-11-21T04:41:42.339Z,0.65
2018-11-21T04:44:11.330Z,1.37
2018-11-21T04:46:40.455Z,0.95
2018-11-21T04:49:09.403Z,0.80
2018-11-21T04:51:38.418Z,0.60
2018-11-21T04:54:07.647Z,0.80
2018-11-21T04:56:36.440Z,0.90
2018-11-21T04:59:05.436Z,0.72
2018-11-21T05:01:34.807Z,1.10
2018-11-21T05:04:03.674Z,0.90
2018-11-21T05:06:32.568Z,0.98
2018-11-21T05:09:01.898Z,1.00
2018-11-21T05:11:30.752Z,1.10
2018-11-21T05:13:59.961Z,1.45
2018-11-21T05:16:28.965Z,0.82
2018-11-21T05:18:57.925Z,0.88
2018-11-21T05:21:26.721Z,1.13
2018-11-21T05:23:55.540Z,0.80
2018-11-21T05:26:24.799Z,2.03
2018-11-21T05:28:53.710Z,0.60
2018-11-21T05:31:22.600Z,1.00
2018-11-21T05:33:51.792Z,1.30
2018-11-21T05:36:20.815Z,2.05
2018-11-21T05:38:49.693Z,2.00
2018-11-21T05:41:18.632Z,1.52
2018-11-21T05:43:47.600Z,1.52
2018-11-21T05:46:16.494Z,1.10
2018-11-21T05:48:45.591Z,1.70
2018-11-21T05:51:14.470Z,1.60
2018-11-21T05:53:43.354Z,1.10
2018-11-21T05:56:12.577Z,1.35
2018-11-21T05:58:41.559Z,1.10
2018-11-21T06:01:10.552Z,1.35
2018-11-21T06:03:39.642Z,1.80
2018-11-21T06:06:10.042Z,1.47
2018-11-21T06:08:37.529Z,1.10
2018-11-21T06:11:06.790Z,2.30
2018-11-21T06:13:35.731Z,1.40
2018-11-21T06:16:04.518Z,1.45
2018-11-21T06:18:33.720Z,1.05
2018-11-21T06:21:02.710Z,1.17
2018-11-21T06:23:31.587Z,0.80
2018-11-21T06:26:00.491Z,0.80
2018-11-21T06:28:29.483Z,0.82
2018-11-21T06:30:58.370Z,0.90
2018-11-21T06:33:27.654Z,0.80
2018-11-21T06:35:56.683Z,0.95
2018-11-21T06:38:25.573Z,1.00
2018-11-21T06:40:54.466Z,0.82
2018-11-21T06:43:23.455Z,0.60
2018-11-21T06:45:52.451Z,0.95
2018-11-21T06:48:21.560Z,0.70
2018-11-21T06:50:50.431Z,0.75
2018-11-21T06:53:19.434Z,1.10
2018-11-21T06:55:48.748Z,0.40
2018-11-21T06:58:17.645Z,0.55
2018-11-21T07:00:46.498Z,0.80
2018-11-21T07:03:15.694Z,0.70
2018-11-21T07:05:44.622Z,0.75
2018-11-21T07:08:13.392Z,1.90
2018-11-21T07:10:42.397Z,2.55
2018-11-21T07:13:11.329Z,3.17
2018-11-21T07:15:40.157Z,0.70
2018-11-21T07:18:09.441Z,3.30
2018-11-21T07:20:38.512Z,5.15
2018-11-21T07:23:07.357Z,4.17
2018-11-21T07:25:36.509Z,5.25
2018-11-21T07:28:05.463Z,4.87
2018-11-21T07:30:34.451Z,4.33
2018-11-21T07:33:03.557Z,4.10
2018-11-21T07:35:32.429Z,4.58
2018-11-21T07:38:01.426Z,4.37
2018-11-21T07:40:30.654Z,3.80
2018-11-21T07:42:59.522Z,4.28
2018-11-21T07:45:28.399Z,4.17
2018-11-21T07:47:57.581Z,3.92
2018-11-21T07:50:26.496Z,3.22
2018-11-21T07:52:55.507Z,3.72
2018-11-21T07:55:24.714Z,4.25
2018-11-21T07:57:58.728Z,2.72
2018-11-21T08:01:04.492Z,2.50
2018-11-21T08:03:38.103Z,2.92
2018-11-21T08:06:09.854Z,3.52
2018-11-21T08:08:56.372Z,2.85
2018-11-21T08:11:42.045Z,3.65
2018-11-21T08:14:28.427Z,3.85
2018-11-21T08:17:22.751Z,3.98
2018-11-21T08:20:19.790Z,3.50
2018-11-21T08:23:06.504Z,3.40
2018-11-21T08:25:46.890Z,3.05
2018-11-21T08:28:23.552Z,5.50
2018-11-21T08:30:52.396Z,4.95
2018-11-21T08:33:21.400Z,5.62
2018-11-21T08:35:59.140Z,5.50
2018-11-21T08:38:28.781Z,4.75
2018-11-21T08:40:57.773Z,7.45
2018-11-21T08:43:26.779Z,10.38
2018-11-21T08:45:56.277Z,8.53
2018-11-21T08:48:27.207Z,10.47
2018-11-21T08:50:56.202Z,12.43
2018-11-21T08:53:25.198Z,11.70
2018-11-21T08:55:54.413Z,13.58
2018-11-21T08:58:23.284Z,10.43
2018-11-21T09:00:52.383Z,11.93
2018-11-21T09:03:21.555Z,9.78
2018-11-21T09:05:50.357Z,9.70
2018-11-21T09:08:19.246Z,9.00
2018-11-21T09:10:48.484Z,5.20
2018-11-21T09:13:17.332Z,8.53
2018-11-21T09:15:46.356Z,10.63
2018-11-21T09:18:15.589Z,4.80
2018-11-21T09:20:44.424Z,7.25
2018-11-21T09:23:13.314Z,9.10
2018-11-21T09:25:42.369Z,10.70
2018-11-21T09:28:11.325Z,15.10
2018-11-21T09:30:40.207Z,8.55
2018-11-21T09:33:09.223Z,13.27
2018-11-21T09:35:38.219Z,11.22
2018-11-21T09:38:06.801Z,10.75
2018-11-21T09:40:35.865Z,12.17
2018-11-21T09:43:04.774Z,6.53
2018-11-21T09:45:33.683Z,7.03
2018-11-21T09:48:02.706Z,7.60
2018-11-21T09:50:32.822Z,8.13
2018-11-21T09:53:01.674Z,8.80
2018-11-21T09:55:30.943Z,10.17
2018-11-21T09:57:59.876Z,10.70
2018-11-21T10:01:05.169Z,11.07
2018-11-21T10:03:35.600Z,10.80
2018-11-21T10:06:26.927Z,17.33
2018-11-21T10:08:57.735Z,16.10
2018-11-21T10:11:26.706Z,14.57
2018-11-21T10:13:56.159Z,14.00
2018-11-21T10:16:24.954Z,12.83
2018-11-21T10:18:55.664Z,13.13
2018-11-21T10:21:26.263Z,13.27
2018-11-21T10:23:55.138Z,13.27
2018-11-21T10:26:24.060Z,14.75
2018-11-21T10:28:53.768Z,41.93
2018-11-21T10:31:22.638Z,35.73
2018-11-21T10:33:51.678Z,41.37
2018-11-21T10:36:20.853Z,36.73
2018-11-21T10:38:49.724Z,27.42
2018-11-21T10:41:18.723Z,31.13
2018-11-21T10:43:47.760Z,32.60
2018-11-21T10:46:16.608Z,26.43
2018-11-21T10:48:45.516Z,30.40
2018-11-21T10:51:15.146Z,28.23
2018-11-21T10:53:43.810Z,31.90
2018-11-21T10:56:12.684Z,25.70
2018-11-21T10:58:41.906Z,28.33
2018-11-21T11:01:28.186Z,26.00
2018-11-21T11:04:02.949Z,34.30
2018-11-21T11:06:49.487Z,32.55
2018-11-21T11:09:34.613Z,32.77
2018-11-21T11:12:21.870Z,31.90
2018-11-21T11:15:08.858Z,33.20
2018-11-21T11:17:59.477Z,30.37
2018-11-21T11:20:49.075Z,24.77
2018-11-21T11:23:36.975Z,29.30
2018-11-21T11:26:28.299Z,26.53
2018-11-21T11:29:25.054Z,89.07
2018-11-21T11:32:09.685Z,24.47
2018-11-21T11:35:12.586Z,30.43
2018-11-21T11:37:59.244Z,26.97
2018-11-21T11:41:02.362Z,27.43
2018-11-21T11:43:48.892Z,24.80
2018-11-21T11:46:28.167Z,25.32
2018-11-21T11:49:34.600Z,25.00
2018-11-21T11:52:37.504Z,28.00
2018-11-21T11:55:25.444Z,24.18
2018-11-21T11:58:15.023Z,24.57
2018-11-21T12:01:02.877Z,22.90
2018-11-21T12:03:49.870Z,23.23
2018-11-21T12:06:37.594Z,22.97
2018-11-21T12:09:33.797Z,22.60
2018-11-21T12:12:27.523Z,21.60
2018-11-21T12:15:15.428Z,20.57
2018-11-21T12:18:06.549Z,20.17
2018-11-21T12:20:53.447Z,27.27
2018-11-21T12:23:39.966Z,62.80
2018-11-21T12:26:17.986Z,64.27
2018-11-21T12:29:05.811Z,58.77
2018-11-21T12:32:08.796Z,36.83
2018-11-21T12:34:56.636Z,26.27
2018-11-21T12:37:43.320Z,41.60
2018-11-21T12:40:34.165Z,20.27
2018-11-21T12:43:34.274Z,23.37
2018-11-21T12:46:20.864Z,18.55
2018-11-21T12:49:23.872Z,15.07
2018-11-21T12:52:11.808Z,11.90
2018-11-21T12:54:58.951Z,12.23
2018-11-21T12:57:56.836Z,13.23
2018-11-21T13:00:56.945Z,17.73
2018-11-21T13:03:43.378Z,17.20
2018-11-21T13:06:37.123Z,10.83
2018-11-21T13:09:28.011Z,13.30
2018-11-21T13:12:34.257Z,12.60
2018-11-21T13:15:20.732Z,16.33
2018-11-21T13:18:11.699Z,22.63
2018-11-21T13:21:05.763Z,20.67
2018-11-21T13:24:08.826Z,18.67
2018-11-21T13:27:02.632Z,10.33
2018-11-21T13:29:42.377Z,10.00
2018-11-21T13:32:39.133Z,9.83
2018-11-21T13:35:32.986Z,8.07
2018-11-21T13:38:30.264Z,12.00
2018-11-21T13:41:19.047Z,11.27
2018-11-21T13:44:05.699Z,9.83
2018-11-21T13:46:52.208Z,14.40
2018-11-21T13:49:30.232Z,6.27
2018-11-21T13:52:33.025Z,7.53
2018-11-21T13:55:03.550Z,9.23
2018-11-21T13:57:32.853Z,9.70
2018-11-21T14:00:02.049Z,14.77
2018-11-21T14:02:31.343Z,11.87
2018-11-21T14:05:00.335Z,11.03
2018-11-21T14:07:29.394Z,10.50
2018-11-21T14:09:58.450Z,10.10
2018-11-21T14:12:27.421Z,13.33
2018-11-21T14:14:56.319Z,11.80
2018-11-21T14:17:27.775Z,14.17
2018-11-21T14:19:54.405Z,12.17
2018-11-21T14:22:23.487Z,14.90
2018-11-21T14:24:52.275Z,13.07
2018-11-21T14:27:21.298Z,14.70
2018-11-21T14:29:50.323Z,11.53
2018-11-21T14:32:19.274Z,11.50
2018-11-21T14:34:48.181Z,12.20
2018-11-21T14:37:17.488Z,14.20
2018-11-21T14:39:46.463Z,13.90
2018-11-21T14:42:15.343Z,12.73
2018-11-21T14:44:44.274Z,11.77
2018-11-21T14:47:15.119Z,9.53
2018-11-21T14:49:46.139Z,10.20
2018-11-21T14:52:15.474Z,10.90
2018-11-21T14:54:44.440Z,13.83
2018-11-21T14:57:13.272Z,12.27
2018-11-21T14:59:42.219Z,7.90
2018-11-21T15:02:11.209Z,7.17
2018-11-21T15:04:40.206Z,6.07
2018-11-21T15:07:09.338Z,7.37
2018-11-21T15:09:38.174Z,6.77
2018-11-21T15:12:07.173Z,6.47
2018-11-21T15:14:36.214Z,7.53
2018-11-21T15:17:05.361Z,10.47
2018-11-21T15:19:35.291Z,6.10
2018-11-21T15:22:04.502Z,6.70
2018-11-21T15:24:33.478Z,4.87
2018-11-21T15:27:02.377Z,8.00
2018-11-21T15:29:31.441Z,8.23
2018-11-21T15:32:00.366Z,8.37
2018-11-21T15:34:29.354Z,5.43
2018-11-21T15:36:58.287Z,4.27
2018-11-21T15:39:27.116Z,3.40
2018-11-21T15:41:56.128Z,4.27
2018-11-21T15:44:25.366Z,4.73
2018-11-21T15:46:54.221Z,4.87
2018-11-21T15:49:23.105Z,5.83
2018-11-21T15:51:52.295Z,7.80
2018-11-21T15:54:21.317Z,8.10
2018-11-21T15:56:50.207Z,7.73
2018-11-21T15:59:19.745Z,9.97
2018-11-21T16:01:48.709Z,8.47
2018-11-21T16:04:17.823Z,7.40
2018-11-21T16:06:46.909Z,8.63
2018-11-21T16:09:15.786Z,11.60
2018-11-21T16:11:44.787Z,8.60
2018-11-21T16:14:13.643Z,9.30
2018-11-21T16:16:42.568Z,11.45
2018-11-21T16:19:11.575Z,12.17
2018-11-21T16:21:40.715Z,97.37
2018-11-21T16:24:09.560Z,24.30
2018-11-21T16:26:38.557Z,19.30
2018-11-21T16:29:07.584Z,19.40
2018-11-21T16:31:36.531Z,24.33
2018-11-21T16:34:05.530Z,32.03
2018-11-21T16:36:34.732Z,41.13
2018-11-21T16:39:04.293Z,43.43
2018-11-21T16:41:33.119Z,49.60
2018-11-21T16:44:02.351Z,42.60
2018-11-21T16:46:31.324Z,35.10
2018-11-21T16:49:00.314Z,33.03
2018-11-21T16:51:29.638Z,27.97
2018-11-21T16:53:58.761Z,23.70
2018-11-21T16:56:27.701Z,18.00
2018-11-21T16:58:56.750Z,14.23
2018-11-21T17:01:25.695Z,12.90
2018-11-21T17:03:54.686Z,13.80
2018-11-21T17:06:23.659Z,13.07
2018-11-21T17:08:52.531Z,9.40
2018-11-21T17:11:21.465Z,6.27
2018-11-21T17:13:50.801Z,6.30
2018-11-21T17:16:19.656Z,8.07
2018-11-21T17:18:48.543Z,6.87
2018-11-21T17:21:17.481Z,6.90
2018-11-21T17:23:46.763Z,7.67
2018-11-21T17:26:15.683Z,8.67
2018-11-21T17:28:44.538Z,8.77
2018-11-21T17:31:13.742Z,8.40
2018-11-21T17:33:42.823Z,5.20
2018-11-21T17:36:11.830Z,7.33
2018-11-21T17:38:41.012Z,7.07
2018-11-21T17:41:09.910Z,7.53
2018-11-21T17:43:38.800Z,6.40
2018-11-21T17:46:08.447Z,7.30
2018-11-21T17:48:37.432Z,7.07
2018-11-21T17:51:06.282Z,6.17
2018-11-21T17:53:35.431Z,7.00
2018-11-21T17:56:04.313Z,7.50
2018-11-21T17:58:33.275Z,7.70
2018-11-21T18:01:02.175Z,9.00
2018-11-21T18:03:31.070Z,10.33
2018-11-21T18:06:00.135Z,8.33
2018-11-21T18:08:29.186Z,8.20
2018-11-21T18:10:58.048Z,8.10
2018-11-21T18:13:27.385Z,8.40
2018-11-21T18:15:56.368Z,7.60
2018-11-21T18:18:25.219Z,7.13
2018-11-21T18:20:54.491Z,7.37
2018-11-21T18:23:23.346Z,7.73
2018-11-21T18:25:52.209Z,5.60
2018-11-21T18:28:21.141Z,5.47
2018-11-21T18:30:50.122Z,6.03
2018-11-21T18:33:19.129Z,8.03
2018-11-21T18:35:48.267Z,6.80
2018-11-21T18:38:17.085Z,6.20
2018-11-21T18:40:46.098Z,12.90
2018-11-21T18:43:15.123Z,9.50
2018-11-21T18:45:45.212Z,8.53
2018-11-21T18:48:14.260Z,8.77
2018-11-21T18:50:43.382Z,6.73
2018-11-21T18:53:12.701Z,2.70
2018-11-21T18:56:30.477Z,4.80
2018-11-21T18:59:47.558Z,6.00
2018-11-21T19:02:16.630Z,7.53
2018-11-21T19:04:45.552Z,12.80
2018-11-21T19:07:14.537Z,11.30
2018-11-21T19:09:43.721Z,5.93
2018-11-21T19:12:12.623Z,8.13
2018-11-21T19:14:41.474Z,2.63
2018-11-21T19:17:10.516Z,0.93
2018-11-21T19:19:39.582Z,1.20
2018-11-21T19:22:08.461Z,1.93
2018-11-21T19:24:37.555Z,1.97
2018-11-21T19:27:06.651Z,2.47
2018-11-21T19:29:35.652Z,2.70
2018-11-21T19:32:04.888Z,2.97
2018-11-21T19:34:33.775Z,2.70
2018-11-21T19:37:02.617Z,4.03
2018-11-21T19:39:31.722Z,3.07
2018-11-21T19:42:00.756Z,3.70
2018-11-21T19:44:29.720Z,4.87
2018-11-21T19:46:58.628Z,4.70
2018-11-21T19:49:33.176Z,5.00
2018-11-21T19:51:56.397Z,5.33
2018-11-21T19:54:25.724Z,6.30
2018-11-21T19:56:54.697Z,8.13
2018-11-21T19:59:23.475Z,8.93
2018-11-21T20:01:52.429Z,9.47
2018-11-21T20:04:21.469Z,8.87
2018-11-21T20:06:50.377Z,16.03
2018-11-21T20:09:19.436Z,15.20
2018-11-21T20:11:48.446Z,8.33
2018-11-21T20:14:17.339Z,7.47
2018-11-21T20:16:46.511Z,10.30
2018-11-21T20:19:15.543Z,5.37
2018-11-21T20:21:44.415Z,4.33
2018-11-21T20:24:13.589Z,4.20
2018-11-21T20:26:42.737Z,3.27
2018-11-21T20:29:11.713Z,2.23
2018-11-21T20:31:40.611Z,3.17
2018-11-21T20:34:10.139Z,5.57
2018-11-21T20:36:39.252Z,4.00
2018-11-21T20:39:10.747Z,4.03
2018-11-21T20:41:40.186Z,2.17
2018-11-21T20:44:09.052Z,3.00
2018-11-21T20:46:38.056Z,2.50
2018-11-21T20:49:11.237Z,3.73
2018-11-21T20:51:36.437Z,3.80
2018-11-21T20:54:05.542Z,3.97
2018-11-21T20:56:34.401Z,5.13
2018-11-21T20:59:03.440Z,5.37
2018-11-21T21:01:32.416Z,5.17
2018-11-21T21:04:01.632Z,5.83
2018-11-21T21:06:30.547Z,5.17
2018-11-21T21:08:59.775Z,5.87
2018-11-21T21:11:28.723Z,3.83
2018-11-21T21:13:57.602Z,4.67
2018-11-21T21:16:26.577Z,4.40
2018-11-21T21:18:55.595Z,4.50
2018-11-21T21:21:24.477Z,5.77
2018-11-21T21:23:53.482Z,5.73
2018-11-21T21:26:22.478Z,6.40
2018-11-21T21:28:51.495Z,6.07
2018-11-21T21:31:20.388Z,6.70
2018-11-21T21:33:49.366Z,5.70
2018-11-21T21:36:18.244Z,7.43
2018-11-21T21:38:47.483Z,7.60
2018-11-21T21:41:16.454Z,7.43
2018-11-21T21:43:45.446Z,7.80
2018-11-21T21:46:14.360Z,7.10
2018-11-21T21:48:43.217Z,7.93
2018-11-21T21:51:12.231Z,8.77
2018-11-21T21:53:41.494Z,8.57
2018-11-21T21:56:10.407Z,8.20
2018-11-21T21:58:39.201Z,8.93
2018-11-21T22:01:08.239Z,10.10
2018-11-21T22:03:37.294Z,9.33
2018-11-21T22:06:06.443Z,10.67
2018-11-21T22:08:35.546Z,11.60
2018-11-21T22:11:04.480Z,10.93
2018-11-21T22:13:33.371Z,11.40
2018-11-21T22:16:02.649Z,11.90
2018-11-21T22:18:31.595Z,12.70
2018-11-21T22:21:00.451Z,13.10
2018-11-21T22:23:29.404Z,13.50
2018-11-21T22:25:58.351Z,14.10
2018-11-21T22:28:27.347Z,12.93
2018-11-21T22:30:56.717Z,10.80
2018-11-21T22:33:25.527Z,11.07
2018-11-21T22:35:58.305Z,9.60
2018-11-21T22:38:23.682Z,9.37
2018-11-21T22:40:52.617Z,7.73
2018-11-21T22:43:21.496Z,9.10
2018-11-21T22:45:50.520Z,8.77
2018-11-21T22:48:19.470Z,7.60
2018-11-21T22:50:48.292Z,7.30
2018-11-21T22:53:17.287Z,6.77
2018-11-21T22:55:46.174Z,5.43
2018-11-21T22:58:15.059Z,5.23
2018-11-21T23:00:45.572Z,5.80
2018-11-21T23:03:15.804Z,5.93
2018-11-21T23:05:44.701Z,6.30
2018-11-21T23:08:13.592Z,5.90
2018-11-21T23:10:42.776Z,5.60
2018-11-21T23:13:11.697Z,5.77
2018-11-21T23:15:40.898Z,5.97
2018-11-21T23:18:10.179Z,7.30
2018-11-21T23:20:39.195Z,5.60
2018-11-21T23:23:08.192Z,5.07
2018-11-21T23:25:37.396Z,5.13
2018-11-21T23:28:06.461Z,4.80
2018-11-21T23:30:35.465Z,4.40
2018-11-21T23:33:04.392Z,3.20
2018-11-21T23:35:33.364Z,3.10
2018-11-21T23:38:02.253Z,2.53
2018-11-21T23:40:31.057Z,2.90
2018-11-21T23:42:59.751Z,3.00
2018-11-21T23:45:28.720Z,3.50
2018-11-21T23:47:57.890Z,3.40
2018-11-21T23:50:26.808Z,3.77
2018-11-21T23:52:55.692Z,3.57
2018-11-21T23:55:24.534Z,3.47
2018-11-21T23:57:53.483Z,3.60
